sensor_id;sensor_type;location;lat;lon;timestamp;P1;durP1;ratioP1;P2;durP2;ratioP2
39924;SDS011;25592;49.986;11.618;2023-11-22T00:01:49;7.65;;;4.13;;
39924;SDS011;25592;49.986;11.618;2023-11-22T00:04:34;8.43;;;4.22;;
39924;SDS011;25592;49.986;11.618;2023-11-22T00:07:20;8.55;;;4.40;;
39924;SDS011;25592;49.986;11.618;2023-11-22T00:10:06;11.95;;;5.15;;
39924;SDS011;25592;49.986;11.618;2023-11-22T00:12:53;11.48;;;4.97;;
39924;SDS011;25592;49.986;11.618;2023-11-22T00:15:39;8.13;;;4.57;;
39924;SDS011;25592;49.986;11.618;2023-11-22T00:18:25;8.70;;;4.60;;
39924;SDS011;25592;49.986;11.618;2023-11-22T00:21:11;8.50;;;4.65;;
39924;SDS011;25592;49.986;11.618;2023-11-22T00:23:56;9.30;;;4.93;;
39924;SDS011;25592;49.986;11.618;2023-11-22T00:26:42;8.00;;;4.45;;
39924;SDS011;25592;49.986;11.618;2023-11-22T00:29:28;8.20;;;4.68;;
39924;SDS011;25592;49.986;11.618;2023-11-22T00:32:13;9.05;;;4.57;;
39924;SDS011;25592;49.986;11.618;2023-11-22T00:34:59;7.85;;;4.25;;
39924;SDS011;25592;49.986;11.618;2023-11-22T00:37:44;8.93;;;4.70;;
39924;SDS011;25592;49.986;11.618;2023-11-22T00:40:30;9.57;;;5.47;;
39924;SDS011;25592;49.986;11.618;2023-11-22T00:43:16;9.30;;;4.88;;
39924;SDS011;25592;49.986;11.618;2023-11-22T00:46:03;8.90;;;4.85;;
39924;SDS011;25592;49.986;11.618;2023-11-22T00:48:49;7.88;;;4.18;;
39924;SDS011;25592;49.986;11.618;2023-11-22T00:51:35;9.23;;;4.78;;
39924;SDS011;25592;49.986;11.618;2023-11-22T00:54:20;7.90;;;4.68;;
39924;SDS011;25592;49.986;11.618;2023-11-22T00:57:06;6.45;;;3.92;;
39924;SDS011;25592;49.986;11.618;2023-11-22T00:59:52;8.20;;;4.68;;
39924;SDS011;25592;49.986;11.618;2023-11-22T01:02:38;7.35;;;4.05;;
39924;SDS011;25592;49.986;11.618;2023-11-22T01:05:24;7.10;;;4.53;;
39924;SDS011;25592;49.986;11.618;2023-11-22T01:08:10;9.80;;;5.15;;
39924;SDS011;25592;49.986;11.618;2023-11-22T01:10:55;7.65;;;4.10;;
39924;SDS011;25592;49.986;11.618;2023-11-22T01:13:42;8.18;;;4.35;;
39924;SDS011;25592;49.986;11.618;2023-11-22T01:16:28;7.32;;;4.22;;
39924;SDS011;25592;49.986;11.618;2023-11-22T01:19:13;7.72;;;4.47;;
39924;SDS011;25592;49.986;11.618;2023-11-22T01:21:59;9.98;;;4.40;;
39924;SDS011;25592;49.986;11.618;2023-11-22T01:24:44;9.18;;;5.13;;
39924;SDS011;25592;49.986;11.618;2023-11-22T01:27:30;8.68;;;4.38;;
39924;SDS011;25592;49.986;11.618;2023-11-22T01:30:15;8.25;;;4.70;;
39924;SDS011;25592;49.986;11.618;2023-11-22T01:33:03;6.75;;;3.75;;
39924;SDS011;25592;49.986;11.618;2023-11-22T01:35:49;8.80;;;4.32;;
39924;SDS011;25592;49.986;11.618;2023-11-22T01:38:34;7.13;;;4.00;;
39924;SDS011;25592;49.986;11.618;2023-11-22T01:41:20;8.48;;;5.07;;
39924;SDS011;25592;49.986;11.618;2023-11-22T01:44:06;10.50;;;4.57;;
39924;SDS011;25592;49.986;11.618;2023-11-22T01:46:51;7.53;;;4.10;;
39924;SDS011;25592;49.986;11.618;2023-11-22T01:49:37;8.32;;;4.50;;
39924;SDS011;25592;49.986;11.618;2023-11-22T01:52:22;9.48;;;5.07;;
39924;SDS011;25592;49.986;11.618;2023-11-22T01:55:08;9.68;;;4.95;;
39924;SDS011;25592;49.986;11.618;2023-11-22T01:57:55;8.48;;;4.80;;
39924;SDS011;25592;49.986;11.618;2023-11-22T02:00:45;9.18;;;5.07;;
39924;SDS011;25592;49.986;11.618;2023-11-22T02:03:37;10.25;;;5.50;;
39924;SDS011;25592;49.986;11.618;2023-11-22T02:06:23;10.27;;;5.22;;
39924;SDS011;25592;49.986;11.618;2023-11-22T02:09:09;10.18;;;5.75;;
39924;SDS011;25592;49.986;11.618;2023-11-22T02:11:58;10.80;;;5.75;;
39924;SDS011;25592;49.986;11.618;2023-11-22T02:14:44;11.45;;;6.00;;
39924;SDS011;25592;49.986;11.618;2023-11-22T02:17:29;13.70;;;6.43;;
39924;SDS011;25592;49.986;11.618;2023-11-22T02:20:15;14.68;;;6.00;;
39924;SDS011;25592;49.986;11.618;2023-11-22T02:23:03;11.98;;;6.72;;
39924;SDS011;25592;49.986;11.618;2023-11-22T02:25:53;13.30;;;6.35;;
39924;SDS011;25592;49.986;11.618;2023-11-22T02:28:39;14.23;;;6.35;;
39924;SDS011;25592;49.986;11.618;2023-11-22T02:31:25;11.02;;;6.22;;
39924;SDS011;25592;49.986;11.618;2023-11-22T02:34:12;13.63;;;6.82;;
39924;SDS011;25592;49.986;11.618;2023-11-22T02:36:57;12.23;;;6.60;;
39924;SDS011;25592;49.986;11.618;2023-11-22T02:39:51;13.75;;;7.22;;
39924;SDS011;25592;49.986;11.618;2023-11-22T02:42:52;12.80;;;6.18;;
39924;SDS011;25592;49.986;11.618;2023-11-22T02:45:38;12.57;;;6.45;;
39924;SDS011;25592;49.986;11.618;2023-11-22T02:48:26;13.43;;;6.78;;
39924;SDS011;25592;49.986;11.618;2023-11-22T02:51:11;13.38;;;6.90;;
39924;SDS011;25592;49.986;11.618;2023-11-22T02:53:58;13.30;;;6.68;;
39924;SDS011;25592;49.986;11.618;2023-11-22T02:56:43;14.43;;;6.97;;
39924;SDS011;25592;49.986;11.618;2023-11-22T02:59:30;14.18;;;7.28;;
39924;SDS011;25592;49.986;11.618;2023-11-22T03:02:15;14.25;;;8.18;;
39924;SDS011;25592;49.986;11.618;2023-11-22T03:05:01;14.30;;;8.05;;
39924;SDS011;25592;49.986;11.618;2023-11-22T03:07:48;17.38;;;8.98;;
39924;SDS011;25592;49.986;11.618;2023-11-22T03:10:36;16.58;;;8.52;;
39924;SDS011;25592;49.986;11.618;2023-11-22T03:13:21;18.77;;;9.13;;
39924;SDS011;25592;49.986;11.618;2023-11-22T03:16:07;17.50;;;8.50;;
39924;SDS011;25592;49.986;11.618;2023-11-22T03:18:53;18.67;;;9.45;;
39924;SDS011;25592;49.986;11.618;2023-11-22T03:21:39;18.63;;;9.50;;
39924;SDS011;25592;49.986;11.618;2023-11-22T03:24:25;17.88;;;8.88;;
39924;SDS011;25592;49.986;11.618;2023-11-22T03:27:11;15.18;;;7.82;;
39924;SDS011;25592;49.986;11.618;2023-11-22T03:29:56;18.08;;;9.57;;
39924;SDS011;25592;49.986;11.618;2023-11-22T03:32:42;16.02;;;8.40;;
39924;SDS011;25592;49.986;11.618;2023-11-22T03:35:29;21.92;;;9.40;;
39924;SDS011;25592;49.986;11.618;2023-11-22T03:38:14;12.88;;;7.78;;
39924;SDS011;25592;49.986;11.618;2023-11-22T03:40:59;14.50;;;8.32;;
39924;SDS011;25592;49.986;11.618;2023-11-22T03:43:45;14.27;;;7.80;;
39924;SDS011;25592;49.986;11.618;2023-11-22T03:46:31;15.98;;;7.78;;
39924;SDS011;25592;49.986;11.618;2023-11-22T03:49:17;11.52;;;6.22;;
39924;SDS011;25592;49.986;11.618;2023-11-22T03:52:03;13.75;;;6.88;;
39924;SDS011;25592;49.986;11.618;2023-11-22T03:54:48;12.27;;;6.65;;
39924;SDS011;25592;49.986;11.618;2023-11-22T03:57:33;10.25;;;6.03;;
39924;SDS011;25592;49.986;11.618;2023-11-22T04:00:19;12.95;;;7.28;;
39924;SDS011;25592;49.986;11.618;2023-11-22T04:03:04;11.68;;;6.60;;
39924;SDS011;25592;49.986;11.618;2023-11-22T04:05:50;14.07;;;6.97;;
39924;SDS011;25592;49.986;11.618;2023-11-22T04:08:36;14.00;;;7.43;;
39924;SDS011;25592;49.986;11.618;2023-11-22T04:11:22;13.30;;;7.00;;
39924;SDS011;25592;49.986;11.618;2023-11-22T04:14:08;13.73;;;6.95;;
39924;SDS011;25592;49.986;11.618;2023-11-22T04:16:54;11.63;;;6.28;;
39924;SDS011;25592;49.986;11.618;2023-11-22T04:19:39;13.05;;;6.05;;
39924;SDS011;25592;49.986;11.618;2023-11-22T04:22:25;11.82;;;6.60;;
39924;SDS011;25592;49.986;11.618;2023-11-22T04:25:10;14.65;;;7.47;;
39924;SDS011;25592;49.986;11.618;2023-11-22T04:27:58;12.90;;;6.93;;
39924;SDS011;25592;49.986;11.618;2023-11-22T04:30:44;12.57;;;6.68;;
39924;SDS011;25592;49.986;11.618;2023-11-22T04:33:30;12.07;;;6.78;;
39924;SDS011;25592;49.986;11.618;2023-11-22T04:36:15;13.48;;;8.13;;
39924;SDS011;25592;49.986;11.618;2023-11-22T04:39:01;14.80;;;7.40;;
39924;SDS011;25592;49.986;11.618;2023-11-22T04:41:48;14.40;;;7.75;;
39924;SDS011;25592;49.986;11.618;2023-11-22T04:44:33;12.07;;;7.03;;
39924;SDS011;25592;49.986;11.618;2023-11-22T04:47:19;13.00;;;7.05;;
39924;SDS011;25592;49.986;11.618;2023-11-22T04:50:06;14.27;;;7.50;;
39924;SDS011;25592;49.986;11.618;2023-11-22T04:52:52;14.40;;;7.72;;
39924;SDS011;25592;49.986;11.618;2023-11-22T04:55:38;12.93;;;8.13;;
39924;SDS011;25592;49.986;11.618;2023-11-22T04:58:23;14.32;;;7.82;;
39924;SDS011;25592;49.986;11.618;2023-11-22T05:01:08;14.32;;;7.10;;
39924;SDS011;25592;49.986;11.618;2023-11-22T05:03:54;14.40;;;7.95;;
39924;SDS011;25592;49.986;11.618;2023-11-22T05:06:39;13.88;;;7.38;;
39924;SDS011;25592;49.986;11.618;2023-11-22T05:09:25;13.30;;;7.32;;
39924;SDS011;25592;49.986;11.618;2023-11-22T05:12:10;14.63;;;8.57;;
39924;SDS011;25592;49.986;11.618;2023-11-22T05:14:56;13.73;;;7.70;;
39924;SDS011;25592;49.986;11.618;2023-11-22T05:17:42;14.10;;;8.18;;
39924;SDS011;25592;49.986;11.618;2023-11-22T05:20:27;25.60;;;10.45;;
39924;SDS011;25592;49.986;11.618;2023-11-22T05:23:13;12.20;;;7.32;;
39924;SDS011;25592;49.986;11.618;2023-11-22T05:25:58;13.80;;;7.35;;
39924;SDS011;25592;49.986;11.618;2023-11-22T05:28:44;16.27;;;8.50;;
39924;SDS011;25592;49.986;11.618;2023-11-22T05:31:31;21.25;;;8.38;;
39924;SDS011;25592;49.986;11.618;2023-11-22T05:34:17;14.93;;;8.43;;
39924;SDS011;25592;49.986;11.618;2023-11-22T05:37:03;17.35;;;8.77;;
39924;SDS011;25592;49.986;11.618;2023-11-22T05:39:50;18.17;;;9.88;;
39924;SDS011;25592;49.986;11.618;2023-11-22T05:42:35;16.52;;;8.43;;
39924;SDS011;25592;49.986;11.618;2023-11-22T05:45:21;19.33;;;9.88;;
39924;SDS011;25592;49.986;11.618;2023-11-22T05:48:08;16.95;;;9.32;;
39924;SDS011;25592;49.986;11.618;2023-11-22T05:50:53;17.45;;;9.07;;
39924;SDS011;25592;49.986;11.618;2023-11-22T05:53:39;22.15;;;9.60;;
39924;SDS011;25592;49.986;11.618;2023-11-22T05:56:24;16.27;;;9.32;;
39924;SDS011;25592;49.986;11.618;2023-11-22T05:59:10;22.05;;;10.50;;
39924;SDS011;25592;49.986;11.618;2023-11-22T06:01:55;22.73;;;10.48;;
39924;SDS011;25592;49.986;11.618;2023-11-22T06:04:41;22.88;;;10.38;;
39924;SDS011;25592;49.986;11.618;2023-11-22T06:07:27;18.77;;;9.15;;
39924;SDS011;25592;49.986;11.618;2023-11-22T06:10:12;20.83;;;10.15;;
39924;SDS011;25592;49.986;11.618;2023-11-22T06:12:59;21.33;;;10.02;;
39924;SDS011;25592;49.986;11.618;2023-11-22T06:15:45;22.50;;;10.68;;
39924;SDS011;25592;49.986;11.618;2023-11-22T06:18:31;25.58;;;11.05;;
39924;SDS011;25592;49.986;11.618;2023-11-22T06:21:16;22.88;;;10.48;;
39924;SDS011;25592;49.986;11.618;2023-11-22T06:24:02;22.52;;;10.23;;
39924;SDS011;25592;49.986;11.618;2023-11-22T06:26:48;22.13;;;11.55;;
39924;SDS011;25592;49.986;11.618;2023-11-22T06:29:35;26.05;;;12.13;;
39924;SDS011;25592;49.986;11.618;2023-11-22T06:32:20;17.17;;;9.15;;
39924;SDS011;25592;49.986;11.618;2023-11-22T06:35:06;20.70;;;9.88;;
39924;SDS011;25592;49.986;11.618;2023-11-22T06:37:53;17.92;;;9.18;;
39924;SDS011;25592;49.986;11.618;2023-11-22T06:40:39;17.92;;;8.57;;
39924;SDS011;25592;49.986;11.618;2023-11-22T06:43:25;16.65;;;8.82;;
39924;SDS011;25592;49.986;11.618;2023-11-22T06:46:11;19.10;;;8.70;;
39924;SDS011;25592;49.986;11.618;2023-11-22T06:48:56;17.50;;;8.23;;
39924;SDS011;25592;49.986;11.618;2023-11-22T06:51:43;16.60;;;7.65;;
39924;SDS011;25592;49.986;11.618;2023-11-22T06:54:28;21.15;;;8.30;;
39924;SDS011;25592;49.986;11.618;2023-11-22T06:57:14;15.85;;;6.95;;
39924;SDS011;25592;49.986;11.618;2023-11-22T06:59:59;14.32;;;7.57;;
39924;SDS011;25592;49.986;11.618;2023-11-22T07:02:49;12.18;;;7.20;;
39924;SDS011;25592;49.986;11.618;2023-11-22T07:05:34;14.23;;;7.05;;
39924;SDS011;25592;49.986;11.618;2023-11-22T07:08:20;12.65;;;7.38;;
39924;SDS011;25592;49.986;11.618;2023-11-22T07:11:06;12.70;;;6.60;;
39924;SDS011;25592;49.986;11.618;2023-11-22T07:13:55;13.90;;;6.97;;
39924;SDS011;25592;49.986;11.618;2023-11-22T07:16:42;12.13;;;7.20;;
39924;SDS011;25592;49.986;11.618;2023-11-22T07:19:27;11.65;;;6.20;;
39924;SDS011;25592;49.986;11.618;2023-11-22T07:22:13;11.25;;;6.05;;
39924;SDS011;25592;49.986;11.618;2023-11-22T07:25:04;13.85;;;7.00;;
39924;SDS011;25592;49.986;11.618;2023-11-22T07:27:51;13.15;;;6.65;;
39924;SDS011;25592;49.986;11.618;2023-11-22T07:30:38;12.27;;;7.13;;
39924;SDS011;25592;49.986;11.618;2023-11-22T07:33:26;12.80;;;6.60;;
39924;SDS011;25592;49.986;11.618;2023-11-22T07:36:12;14.90;;;7.82;;
39924;SDS011;25592;49.986;11.618;2023-11-22T07:39:00;13.85;;;7.40;;
39924;SDS011;25592;49.986;11.618;2023-11-22T07:41:47;13.68;;;7.40;;
39924;SDS011;25592;49.986;11.618;2023-11-22T07:44:34;12.77;;;7.70;;
39924;SDS011;25592;49.986;11.618;2023-11-22T07:47:22;14.90;;;7.03;;
39924;SDS011;25592;49.986;11.618;2023-11-22T07:50:09;14.13;;;8.20;;
39924;SDS011;25592;49.986;11.618;2023-11-22T07:52:56;12.90;;;6.30;;
39924;SDS011;25592;49.986;11.618;2023-11-22T07:55:42;15.07;;;7.60;;
39924;SDS011;25592;49.986;11.618;2023-11-22T07:58:28;12.25;;;7.05;;
39924;SDS011;25592;49.986;11.618;2023-11-22T08:01:13;12.95;;;6.85;;
39924;SDS011;25592;49.986;11.618;2023-11-22T08:03:59;12.90;;;6.43;;
39924;SDS011;25592;49.986;11.618;2023-11-22T08:06:45;13.50;;;7.05;;
39924;SDS011;25592;49.986;11.618;2023-11-22T08:09:31;12.55;;;6.65;;
39924;SDS011;25592;49.986;11.618;2023-11-22T08:12:17;12.52;;;6.55;;
39924;SDS011;25592;49.986;11.618;2023-11-22T08:15:04;21.65;;;8.70;;
39924;SDS011;25592;49.986;11.618;2023-11-22T08:17:50;11.35;;;6.00;;
39924;SDS011;25592;49.986;11.618;2023-11-22T08:20:35;13.18;;;7.35;;
39924;SDS011;25592;49.986;11.618;2023-11-22T08:23:22;12.75;;;6.35;;
39924;SDS011;25592;49.986;11.618;2023-11-22T08:26:08;12.50;;;5.97;;
39924;SDS011;25592;49.986;11.618;2023-11-22T08:28:53;11.38;;;6.25;;
39924;SDS011;25592;49.986;11.618;2023-11-22T08:31:40;11.50;;;6.05;;
39924;SDS011;25592;49.986;11.618;2023-11-22T08:34:25;13.60;;;7.35;;
39924;SDS011;25592;49.986;11.618;2023-11-22T08:37:11;14.02;;;6.88;;
39924;SDS011;25592;49.986;11.618;2023-11-22T08:39:56;11.55;;;6.20;;
39924;SDS011;25592;49.986;11.618;2023-11-22T08:42:41;11.00;;;5.82;;
39924;SDS011;25592;49.986;11.618;2023-11-22T08:45:28;20.88;;;7.05;;
39924;SDS011;25592;49.986;11.618;2023-11-22T08:48:14;10.10;;;5.60;;
39924;SDS011;25592;49.986;11.618;2023-11-22T08:51:00;10.23;;;6.07;;
39924;SDS011;25592;49.986;11.618;2023-11-22T08:53:49;10.77;;;5.57;;
39924;SDS011;25592;49.986;11.618;2023-11-22T08:56:35;10.55;;;5.47;;
39924;SDS011;25592;49.986;11.618;2023-11-22T08:59:20;9.93;;;5.28;;
39924;SDS011;25592;49.986;11.618;2023-11-22T09:02:06;11.27;;;5.85;;
39924;SDS011;25592;49.986;11.618;2023-11-22T09:04:52;12.23;;;5.07;;
39924;SDS011;25592;49.986;11.618;2023-11-22T09:07:38;11.60;;;5.25;;
39924;SDS011;25592;49.986;11.618;2023-11-22T09:10:24;8.98;;;4.38;;
39924;SDS011;25592;49.986;11.618;2023-11-22T09:13:09;8.93;;;4.70;;
39924;SDS011;25592;49.986;11.618;2023-11-22T09:15:55;8.55;;;5.20;;
39924;SDS011;25592;49.986;11.618;2023-11-22T09:18:41;8.82;;;4.93;;
39924;SDS011;25592;49.986;11.618;2023-11-22T09:21:27;10.50;;;4.32;;
39924;SDS011;25592;49.986;11.618;2023-11-22T09:24:12;9.50;;;5.00;;
39924;SDS011;25592;49.986;11.618;2023-11-22T09:26:57;8.07;;;4.50;;
39924;SDS011;25592;49.986;11.618;2023-11-22T09:29:43;8.82;;;4.50;;
39924;SDS011;25592;49.986;11.618;2023-11-22T09:32:30;6.55;;;3.92;;
39924;SDS011;25592;49.986;11.618;2023-11-22T09:35:15;10.32;;;5.70;;
39924;SDS011;25592;49.986;11.618;2023-11-22T09:38:01;10.77;;;5.40;;
39924;SDS011;25592;49.986;11.618;2023-11-22T09:40:57;10.40;;;4.57;;
39924;SDS011;25592;49.986;11.618;2023-11-22T09:43:45;8.77;;;5.00;;
39924;SDS011;25592;49.986;11.618;2023-11-22T09:46:34;12.52;;;5.85;;
39924;SDS011;25592;49.986;11.618;2023-11-22T09:49:24;10.00;;;5.22;;
39924;SDS011;25592;49.986;11.618;2023-11-22T09:52:13;12.70;;;5.17;;
39924;SDS011;25592;49.986;11.618;2023-11-22T09:55:04;9.60;;;4.85;;
39924;SDS011;25592;49.986;11.618;2023-11-22T09:57:50;10.05;;;4.60;;
39924;SDS011;25592;49.986;11.618;2023-11-22T10:00:37;10.38;;;5.28;;
39924;SDS011;25592;49.986;11.618;2023-11-22T10:03:26;10.48;;;6.32;;
39924;SDS011;25592;49.986;11.618;2023-11-22T10:06:16;11.57;;;6.57;;
39924;SDS011;25592;49.986;11.618;2023-11-22T10:09:03;15.93;;;6.20;;
39924;SDS011;25592;49.986;11.618;2023-11-22T10:12:01;12.65;;;6.22;;
39924;SDS011;25592;49.986;11.618;2023-11-22T10:14:47;14.35;;;6.22;;
39924;SDS011;25592;49.986;11.618;2023-11-22T10:17:32;11.63;;;5.70;;
39924;SDS011;25592;49.986;11.618;2023-11-22T10:20:18;11.88;;;6.05;;
39924;SDS011;25592;49.986;11.618;2023-11-22T10:23:03;11.18;;;6.22;;
39924;SDS011;25592;49.986;11.618;2023-11-22T10:25:57;12.95;;;7.03;;
39924;SDS011;25592;49.986;11.618;2023-11-22T10:28:42;19.42;;;7.05;;
39924;SDS011;25592;49.986;11.618;2023-11-22T10:31:30;13.80;;;6.25;;
39924;SDS011;25592;49.986;11.618;2023-11-22T10:34:20;12.57;;;6.18;;
39924;SDS011;25592;49.986;11.618;2023-11-22T10:37:09;13.70;;;6.22;;
39924;SDS011;25592;49.986;11.618;2023-11-22T10:39:54;13.25;;;6.18;;
39924;SDS011;25592;49.986;11.618;2023-11-22T10:42:40;14.88;;;7.07;;
39924;SDS011;25592;49.986;11.618;2023-11-22T10:45:30;16.85;;;7.10;;
39924;SDS011;25592;49.986;11.618;2023-11-22T10:48:17;15.00;;;6.95;;
39924;SDS011;25592;49.986;11.618;2023-11-22T10:51:03;13.63;;;6.85;;
39924;SDS011;25592;49.986;11.618;2023-11-22T10:53:50;13.35;;;7.50;;
39924;SDS011;25592;49.986;11.618;2023-11-22T10:56:39;11.85;;;6.95;;
39924;SDS011;25592;49.986;11.618;2023-11-22T10:59:26;11.45;;;6.15;;
39924;SDS011;25592;49.986;11.618;2023-11-22T11:02:16;14.32;;;7.07;;
39924;SDS011;25592;49.986;11.618;2023-11-22T11:05:07;13.95;;;7.50;;
39924;SDS011;25592;49.986;11.618;2023-11-22T11:08:03;17.27;;;7.90;;
39924;SDS011;25592;49.986;11.618;2023-11-22T11:10:56;13.75;;;6.32;;
39924;SDS011;25592;49.986;11.618;2023-11-22T11:13:43;12.07;;;6.97;;
39924;SDS011;25592;49.986;11.618;2023-11-22T11:16:30;14.00;;;7.07;;
39924;SDS011;25592;49.986;11.618;2023-11-22T11:19:19;11.63;;;6.75;;
39924;SDS011;25592;49.986;11.618;2023-11-22T11:22:08;15.32;;;6.68;;
39924;SDS011;25592;49.986;11.618;2023-11-22T11:25:02;12.45;;;7.10;;
39924;SDS011;25592;49.986;11.618;2023-11-22T11:27:56;11.60;;;6.53;;
39924;SDS011;25592;49.986;11.618;2023-11-22T11:30:45;14.30;;;6.80;;
39924;SDS011;25592;49.986;11.618;2023-11-22T11:33:33;15.88;;;7.18;;
39924;SDS011;25592;49.986;11.618;2023-11-22T11:39:12;14.77;;;7.10;;
39924;SDS011;25592;49.986;11.618;2023-11-22T11:42:10;15.77;;;7.43;;
39924;SDS011;25592;49.986;11.618;2023-11-22T11:45:02;12.02;;;6.30;;
39924;SDS011;25592;49.986;11.618;2023-11-22T11:47:51;15.02;;;8.02;;
39924;SDS011;25592;49.986;11.618;2023-11-22T11:50:36;12.90;;;5.68;;
39924;SDS011;25592;49.986;11.618;2023-11-22T11:53:22;11.88;;;5.85;;
39924;SDS011;25592;49.986;11.618;2023-11-22T11:56:08;12.52;;;6.40;;
39924;SDS011;25592;49.986;11.618;2023-11-22T11:58:56;17.83;;;6.82;;
39924;SDS011;25592;49.986;11.618;2023-11-22T12:01:45;12.38;;;6.90;;
39924;SDS011;25592;49.986;11.618;2023-11-22T12:04:31;14.65;;;5.75;;
39924;SDS011;25592;49.986;11.618;2023-11-22T12:07:17;11.82;;;6.47;;
39924;SDS011;25592;49.986;11.618;2023-11-22T12:10:03;11.25;;;5.80;;
39924;SDS011;25592;49.986;11.618;2023-11-22T12:12:51;12.50;;;6.03;;
39924;SDS011;25592;49.986;11.618;2023-11-22T12:15:36;13.15;;;5.95;;
39924;SDS011;25592;49.986;11.618;2023-11-22T12:18:22;14.35;;;6.07;;
39924;SDS011;25592;49.986;11.618;2023-11-22T12:21:08;10.98;;;5.93;;
39924;SDS011;25592;49.986;11.618;2023-11-22T12:23:57;11.98;;;5.90;;
39924;SDS011;25592;49.986;11.618;2023-11-22T12:26:46;13.88;;;6.72;;
39924;SDS011;25592;49.986;11.618;2023-11-22T12:29:35;11.57;;;5.25;;
39924;SDS011;25592;49.986;11.618;2023-11-22T12:32:25;9.68;;;5.50;;
39924;SDS011;25592;49.986;11.618;2023-11-22T12:35:10;12.68;;;6.20;;
39924;SDS011;25592;49.986;11.618;2023-11-22T12:37:58;15.50;;;6.03;;
39924;SDS011;25592;49.986;11.618;2023-11-22T12:40:44;11.02;;;5.68;;
39924;SDS011;25592;49.986;11.618;2023-11-22T12:43:32;11.95;;;5.63;;
39924;SDS011;25592;49.986;11.618;2023-11-22T12:46:44;14.23;;;5.43;;
39924;SDS011;25592;49.986;11.618;2023-11-22T12:49:30;11.60;;;6.85;;
39924;SDS011;25592;49.986;11.618;2023-11-22T12:52:17;11.93;;;6.07;;
39924;SDS011;25592;49.986;11.618;2023-11-22T12:55:02;10.90;;;6.20;;
39924;SDS011;25592;49.986;11.618;2023-11-22T12:57:56;10.77;;;6.00;;
39924;SDS011;25592;49.986;11.618;2023-11-22T13:00:48;13.25;;;5.68;;
39924;SDS011;25592;49.986;11.618;2023-11-22T13:03:34;10.60;;;5.45;;
39924;SDS011;25592;49.986;11.618;2023-11-22T13:06:21;10.60;;;5.32;;
39924;SDS011;25592;49.986;11.618;2023-11-22T13:09:09;12.38;;;6.32;;
39924;SDS011;25592;49.986;11.618;2023-11-22T13:12:01;13.27;;;6.43;;
39924;SDS011;25592;49.986;11.618;2023-11-22T13:14:47;9.75;;;5.15;;
39924;SDS011;25592;49.986;11.618;2023-11-22T13:17:32;10.65;;;5.25;;
39924;SDS011;25592;49.986;11.618;2023-11-22T13:20:18;11.80;;;5.22;;
39924;SDS011;25592;49.986;11.618;2023-11-22T13:23:04;13.10;;;6.10;;
39924;SDS011;25592;49.986;11.618;2023-11-22T13:25:50;10.50;;;5.22;;
39924;SDS011;25592;49.986;11.618;2023-11-22T13:28:35;17.63;;;7.32;;
39924;SDS011;25592;49.986;11.618;2023-11-22T13:31:20;11.00;;;6.25;;
39924;SDS011;25592;49.986;11.618;2023-11-22T13:34:06;14.85;;;7.00;;
39924;SDS011;25592;49.986;11.618;2023-11-22T13:36:51;12.35;;;6.00;;
39924;SDS011;25592;49.986;11.618;2023-11-22T13:39:37;10.63;;;5.10;;
39924;SDS011;25592;49.986;11.618;2023-11-22T13:42:23;10.55;;;5.95;;
39924;SDS011;25592;49.986;11.618;2023-11-22T13:45:09;12.05;;;5.65;;
39924;SDS011;25592;49.986;11.618;2023-11-22T13:47:59;12.02;;;6.53;;
39924;SDS011;25592;49.986;11.618;2023-11-22T13:50:52;11.48;;;6.18;;
39924;SDS011;25592;49.986;11.618;2023-11-22T13:53:37;10.07;;;5.38;;
39924;SDS011;25592;49.986;11.618;2023-11-22T13:56:28;12.77;;;6.30;;
39924;SDS011;25592;49.986;11.618;2023-11-22T13:59:14;14.02;;;6.28;;
39924;SDS011;25592;49.986;11.618;2023-11-22T14:01:59;12.77;;;5.80;;
39924;SDS011;25592;49.986;11.618;2023-11-22T14:04:45;12.98;;;6.18;;
39924;SDS011;25592;49.986;11.618;2023-11-22T14:07:30;10.80;;;5.78;;
39924;SDS011;25592;49.986;11.618;2023-11-22T14:10:16;11.48;;;5.95;;
39924;SDS011;25592;49.986;11.618;2023-11-22T14:13:02;11.88;;;6.05;;
39924;SDS011;25592;49.986;11.618;2023-11-22T14:15:48;11.27;;;5.50;;
39924;SDS011;25592;49.986;11.618;2023-11-22T14:18:34;10.40;;;5.40;;
39924;SDS011;25592;49.986;11.618;2023-11-22T14:21:19;12.38;;;6.05;;
39924;SDS011;25592;49.986;11.618;2023-11-22T14:24:05;13.40;;;5.90;;
39924;SDS011;25592;49.986;11.618;2023-11-22T14:26:51;11.82;;;5.40;;
39924;SDS011;25592;49.986;11.618;2023-11-22T14:29:36;10.15;;;5.70;;
39924;SDS011;25592;49.986;11.618;2023-11-22T14:32:22;9.98;;;5.15;;
39924;SDS011;25592;49.986;11.618;2023-11-22T14:35:08;11.82;;;6.18;;
39924;SDS011;25592;49.986;11.618;2023-11-22T14:37:54;11.43;;;5.53;;
39924;SDS011;25592;49.986;11.618;2023-11-22T14:40:41;11.23;;;5.95;;
39924;SDS011;25592;49.986;11.618;2023-11-22T14:43:26;11.18;;;6.38;;
39924;SDS011;25592;49.986;11.618;2023-11-22T14:46:12;11.57;;;5.50;;
39924;SDS011;25592;49.986;11.618;2023-11-22T14:48:57;9.23;;;4.97;;
39924;SDS011;25592;49.986;11.618;2023-11-22T14:51:43;12.07;;;5.63;;
39924;SDS011;25592;49.986;11.618;2023-11-22T14:54:28;10.63;;;5.03;;
39924;SDS011;25592;49.986;11.618;2023-11-22T14:57:14;12.15;;;5.30;;
39924;SDS011;25592;49.986;11.618;2023-11-22T15:00:02;12.88;;;6.03;;
39924;SDS011;25592;49.986;11.618;2023-11-22T15:02:54;14.53;;;6.70;;
39924;SDS011;25592;49.986;11.618;2023-11-22T15:05:42;17.40;;;9.55;;
39924;SDS011;25592;49.986;11.618;2023-11-22T15:08:27;16.38;;;8.25;;
39924;SDS011;25592;49.986;11.618;2023-11-22T15:11:13;14.45;;;6.70;;
39924;SDS011;25592;49.986;11.618;2023-11-22T15:14:06;11.07;;;5.75;;
39924;SDS011;25592;49.986;11.618;2023-11-22T15:16:51;11.18;;;5.47;;
39924;SDS011;25592;49.986;11.618;2023-11-22T15:19:37;11.88;;;5.50;;
39924;SDS011;25592;49.986;11.618;2023-11-22T15:22:23;10.88;;;5.50;;
39924;SDS011;25592;49.986;11.618;2023-11-22T15:25:08;10.57;;;5.15;;
39924;SDS011;25592;49.986;11.618;2023-11-22T15:28:00;9.43;;;5.93;;
39924;SDS011;25592;49.986;11.618;2023-11-22T15:30:45;11.95;;;6.28;;
39924;SDS011;25592;49.986;11.618;2023-11-22T15:33:31;13.25;;;5.22;;
39924;SDS011;25592;49.986;11.618;2023-11-22T15:36:16;10.30;;;5.68;;
39924;SDS011;25592;49.986;11.618;2023-11-22T15:39:02;12.55;;;5.75;;
39924;SDS011;25592;49.986;11.618;2023-11-22T15:41:48;8.63;;;4.88;;
39924;SDS011;25592;49.986;11.618;2023-11-22T15:44:34;14.73;;;6.00;;
39924;SDS011;25592;49.986;11.618;2023-11-22T15:47:19;12.07;;;6.45;;
39924;SDS011;25592;49.986;11.618;2023-11-22T15:50:04;12.80;;;6.50;;
39924;SDS011;25592;49.986;11.618;2023-11-22T15:52:52;12.85;;;6.80;;
39924;SDS011;25592;49.986;11.618;2023-11-22T15:55:38;13.63;;;7.38;;
39924;SDS011;25592;49.986;11.618;2023-11-22T15:58:24;13.45;;;7.40;;
39924;SDS011;25592;49.986;11.618;2023-11-22T16:01:10;12.45;;;6.50;;
39924;SDS011;25592;49.986;11.618;2023-11-22T16:03:56;13.55;;;8.18;;
39924;SDS011;25592;49.986;11.618;2023-11-22T16:06:41;13.90;;;7.20;;
39924;SDS011;25592;49.986;11.618;2023-11-22T16:09:27;10.23;;;5.80;;
39924;SDS011;25592;49.986;11.618;2023-11-22T16:12:12;13.60;;;7.20;;
39924;SDS011;25592;49.986;11.618;2023-11-22T16:15:03;13.73;;;7.00;;
39924;SDS011;25592;49.986;11.618;2023-11-22T16:17:50;13.18;;;7.35;;
39924;SDS011;25592;49.986;11.618;2023-11-22T16:20:35;14.90;;;7.25;;